Terminal Aerodrome Forecast
Issued by NWS

Home | Current Version | Previous Version | Text Only | Print | Product List | Glossary On
Versions: 1 2 3 4 5 6 7 8 9 10 11 12 13 14 15 16
011
FTUS41 KBTV 030718 AAA
TAFMSS
TAF AMD
KMSS 030718Z 0307/0406 00000KT 1/2SM FG VV002
      TEMPO 0307/0311 1/4SM FG VV001
     FM031200 00000KT 1SM BR BKN045
     FM031300 07004KT 6SM BR BKN045
     FM031600 04006KT P6SM SCT080
     FM040200 00000KT P6SM FEW120=

USA.gov is the U.S. government's official web portal to all federal, state and local government web resources and services.